createdAt,value
2017-10-20T00:00:11.536Z,17.03
2017-10-20T00:02:38.248Z,17.67
2017-10-20T00:05:05.036Z,17.77
2017-10-20T00:07:31.795Z,16.83
2017-10-20T00:09:58.507Z,17.00
2017-10-20T00:12:25.286Z,17.70
2017-10-20T00:14:52.027Z,18.50
2017-10-20T00:17:18.737Z,18.10
2017-10-20T00:19:45.446Z,17.87
2017-10-20T00:22:12.176Z,18.10
2017-10-20T00:24:38.969Z,17.30
2017-10-20T00:27:05.688Z,17.83
2017-10-20T00:29:32.493Z,18.07
2017-10-20T00:31:59.194Z,17.27
2017-10-20T00:34:25.918Z,18.50
2017-10-20T00:36:52.682Z,17.63
2017-10-20T00:39:19.426Z,17.50
2017-10-20T00:41:46.137Z,16.03
2017-10-20T00:44:12.896Z,16.13
2017-10-20T00:46:39.674Z,17.27
2017-10-20T00:49:06.397Z,16.60
2017-10-20T00:51:33.160Z,16.80
2017-10-20T00:53:59.904Z,16.63
2017-10-20T00:56:26.682Z,17.43
2017-10-20T00:58:53.449Z,15.57
2017-10-20T01:01:20.155Z,16.80
2017-10-20T01:03:46.910Z,15.17
2017-10-20T01:06:13.649Z,16.73
2017-10-20T01:08:40.354Z,16.03
2017-10-20T01:11:07.071Z,15.33
2017-10-20T01:13:33.808Z,14.90
2017-10-20T01:16:00.544Z,15.40
2017-10-20T01:18:27.265Z,15.43
2017-10-20T01:20:54.015Z,15.27
2017-10-20T01:23:20.775Z,15.57
2017-10-20T01:25:47.523Z,16.70
2017-10-20T01:28:14.285Z,15.53
2017-10-20T01:30:41.022Z,16.53
2017-10-20T01:33:07.747Z,15.50
2017-10-20T01:35:34.513Z,16.07
2017-10-20T01:38:01.271Z,16.20
2017-10-20T01:40:28.008Z,15.43
2017-10-20T01:42:54.778Z,16.30
2017-10-20T01:45:21.510Z,16.80
2017-10-20T01:47:48.263Z,15.63
2017-10-20T01:50:15.056Z,15.47
2017-10-20T01:52:41.805Z,16.47
2017-10-20T01:55:08.555Z,15.93
2017-10-20T01:57:35.306Z,15.57
2017-10-20T02:00:02.036Z,15.80
2017-10-20T02:02:28.771Z,14.60
2017-10-20T02:04:55.524Z,15.50
2017-10-20T02:07:22.323Z,14.37
2017-10-20T02:09:49.038Z,13.30
2017-10-20T02:12:15.813Z,13.40
2017-10-20T02:14:42.608Z,13.73
2017-10-20T02:17:09.335Z,14.70
2017-10-20T02:19:36.128Z,14.97
2017-10-20T02:22:02.892Z,14.53
2017-10-20T02:24:29.659Z,15.27
2017-10-20T02:26:56.417Z,14.50
2017-10-20T02:29:23.154Z,15.60
2017-10-20T02:31:49.858Z,15.20
2017-10-20T02:34:16.630Z,15.50
2017-10-20T02:36:43.355Z,14.87
2017-10-20T02:39:10.094Z,15.10
2017-10-20T02:41:36.858Z,15.47
2017-10-20T02:44:03.580Z,14.20
2017-10-20T02:46:30.378Z,15.87
2017-10-20T02:48:57.116Z,15.27
2017-10-20T02:51:23.847Z,14.83
2017-10-20T02:53:50.561Z,15.40
2017-10-20T02:56:17.335Z,14.30
2017-10-20T02:58:44.079Z,14.27
2017-10-20T03:01:10.829Z,14.20
2017-10-20T03:03:37.642Z,15.57
2017-10-20T03:06:04.358Z,17.10
2017-10-20T03:08:31.066Z,16.10
2017-10-20T03:10:57.821Z,15.73
2017-10-20T03:13:24.534Z,14.97
2017-10-20T03:15:51.234Z,14.93
2017-10-20T03:18:18.003Z,13.00
2017-10-20T03:20:44.712Z,14.13
2017-10-20T03:23:11.436Z,15.07
2017-10-20T03:25:38.168Z,13.80
2017-10-20T03:28:04.908Z,13.00
2017-10-20T03:30:31.642Z,13.50
2017-10-20T03:32:58.369Z,14.53
2017-10-20T03:35:25.085Z,13.07
2017-10-20T03:37:51.801Z,13.23
2017-10-20T03:40:18.522Z,13.47
2017-10-20T03:42:45.237Z,12.77
2017-10-20T03:45:11.955Z,13.10
2017-10-20T03:47:38.715Z,13.47
2017-10-20T03:50:05.421Z,16.10
2017-10-20T03:52:32.125Z,16.07
2017-10-20T03:54:58.868Z,14.60
2017-10-20T03:57:25.575Z,14.03
2017-10-20T03:59:52.361Z,16.70
2017-10-20T04:02:19.100Z,15.47
2017-10-20T04:04:45.864Z,13.73
2017-10-20T04:07:12.687Z,15.87
2017-10-20T04:09:39.455Z,16.00
2017-10-20T04:12:06.184Z,15.10
2017-10-20T04:14:32.964Z,14.73
2017-10-20T04:16:59.741Z,14.80
2017-10-20T04:19:26.489Z,13.80
2017-10-20T04:21:53.273Z,16.03
2017-10-20T04:24:20.084Z,15.10
2017-10-20T04:26:46.816Z,15.87
2017-10-20T04:29:13.544Z,15.67
2017-10-20T04:31:40.307Z,15.13
2017-10-20T04:34:07.050Z,14.50
2017-10-20T04:36:33.757Z,16.00
2017-10-20T04:39:00.499Z,13.07
2017-10-20T04:41:27.212Z,15.80
2017-10-20T04:43:53.931Z,15.73
2017-10-20T04:46:20.671Z,15.70
2017-10-20T04:48:47.385Z,15.33
2017-10-20T04:51:14.096Z,14.00
2017-10-20T04:53:40.860Z,16.00
2017-10-20T04:56:07.587Z,15.70
2017-10-20T04:58:34.331Z,14.30
2017-10-20T05:01:01.078Z,14.10
2017-10-20T05:03:27.880Z,16.30
2017-10-20T05:05:54.580Z,14.30
2017-10-20T05:08:21.308Z,13.00
2017-10-20T05:10:48.026Z,12.53
2017-10-20T05:13:14.757Z,14.23
2017-10-20T05:15:41.628Z,14.07
2017-10-20T05:18:08.338Z,12.50
2017-10-20T05:20:35.078Z,13.00
2017-10-20T05:23:01.814Z,13.53
2017-10-20T05:25:28.532Z,12.70
2017-10-20T05:27:55.238Z,13.70
2017-10-20T05:30:22.000Z,13.00
2017-10-20T05:32:48.709Z,11.90
2017-10-20T05:35:15.447Z,13.27
2017-10-20T05:37:42.166Z,12.10
2017-10-20T05:40:08.894Z,13.50
2017-10-20T05:42:35.605Z,14.50
2017-10-20T05:45:02.376Z,12.50
2017-10-20T05:47:29.084Z,12.60
2017-10-20T05:49:55.790Z,13.63
2017-10-20T05:52:22.548Z,13.30
2017-10-20T05:54:49.338Z,14.07
2017-10-20T05:57:16.041Z,15.80
2017-10-20T05:59:42.797Z,13.90
2017-10-20T06:02:09.516Z,15.20
2017-10-20T06:04:36.248Z,16.83
2017-10-20T06:07:03.042Z,15.07
2017-10-20T06:09:29.753Z,14.20
2017-10-20T06:11:56.467Z,14.40
2017-10-20T06:14:23.202Z,14.30
2017-10-20T06:16:49.897Z,13.77
2017-10-20T06:19:16.589Z,13.13
2017-10-20T06:21:43.310Z,13.30
2017-10-20T06:24:10.027Z,13.50
2017-10-20T06:26:36.727Z,15.60
2017-10-20T06:29:03.470Z,16.90
2017-10-20T06:31:30.274Z,16.97
2017-10-20T06:33:56.984Z,17.33
2017-10-20T06:36:23.706Z,18.33
2017-10-20T06:38:50.426Z,19.00
2017-10-20T06:41:17.153Z,18.40
2017-10-20T06:43:43.874Z,19.17
2017-10-20T06:46:10.586Z,18.40
2017-10-20T06:48:37.296Z,18.77
2017-10-20T06:51:04.031Z,20.50
2017-10-20T06:53:30.735Z,19.93
2017-10-20T06:55:57.447Z,19.60
2017-10-20T06:58:24.185Z,22.80
2017-10-20T07:00:50.886Z,20.20
2017-10-20T07:03:17.644Z,22.13
2017-10-20T07:05:44.378Z,20.43
2017-10-20T07:08:11.091Z,19.30
2017-10-20T07:10:37.797Z,21.90
2017-10-20T07:13:04.557Z,24.00
2017-10-20T07:15:31.297Z,23.60
2017-10-20T07:17:58.028Z,22.40
2017-10-20T07:20:39.661Z,22.47
2017-10-20T07:23:06.474Z,21.23
2017-10-20T07:25:33.179Z,21.90
2017-10-20T07:27:59.914Z,23.50
2017-10-20T07:30:26.670Z,23.50
2017-10-20T07:32:53.445Z,23.43
2017-10-20T07:35:20.171Z,23.30
2017-10-20T07:37:46.877Z,23.67
2017-10-20T07:40:13.605Z,21.17
2017-10-20T07:42:40.401Z,22.60
2017-10-20T07:45:07.115Z,21.83
2017-10-20T07:47:33.823Z,22.10
2017-10-20T07:50:00.564Z,22.13
2017-10-20T07:52:27.260Z,22.23
2017-10-20T07:54:53.952Z,23.90
2017-10-20T07:57:20.679Z,23.10
2017-10-20T07:59:47.379Z,23.63
2017-10-20T08:02:14.079Z,22.33
2017-10-20T08:04:40.811Z,21.33
2017-10-20T08:07:07.518Z,21.73
2017-10-20T08:09:34.209Z,22.60
2017-10-20T08:12:00.925Z,22.50
2017-10-20T08:14:27.635Z,24.10
2017-10-20T08:16:54.334Z,26.40
2017-10-20T08:19:21.053Z,23.00
2017-10-20T08:21:47.801Z,23.10
2017-10-20T08:24:14.506Z,22.93
2017-10-20T08:26:41.226Z,19.37
2017-10-20T08:29:07.923Z,21.77
2017-10-20T08:31:34.625Z,21.30
2017-10-20T08:34:01.356Z,22.93
2017-10-20T08:36:28.065Z,21.43
2017-10-20T08:38:54.786Z,22.20
2017-10-20T08:41:21.526Z,22.50
2017-10-20T08:43:48.235Z,20.37
2017-10-20T08:46:14.967Z,21.87
2017-10-20T08:48:41.694Z,21.53
2017-10-20T08:51:08.402Z,21.30
2017-10-20T08:53:35.108Z,21.20
2017-10-20T08:56:01.908Z,19.87
2017-10-20T08:58:28.611Z,21.80
2017-10-20T09:00:55.307Z,21.83
2017-10-20T09:03:22.035Z,24.60
2017-10-20T09:05:48.761Z,24.00
2017-10-20T09:08:15.462Z,22.00
2017-10-20T09:10:42.174Z,22.27
2017-10-20T09:13:08.875Z,21.40
2017-10-20T09:15:35.584Z,21.10
2017-10-20T09:18:02.356Z,21.83
2017-10-20T09:20:29.336Z,20.30
2017-10-20T09:22:56.043Z,21.77
2017-10-20T09:25:22.787Z,20.20
2017-10-20T09:27:49.503Z,20.93
2017-10-20T09:30:16.197Z,20.90
2017-10-20T09:32:42.919Z,21.40
2017-10-20T09:35:09.622Z,20.07
2017-10-20T09:37:36.331Z,18.03
2017-10-20T09:40:03.340Z,20.57
2017-10-20T09:42:30.077Z,19.80
2017-10-20T09:44:56.805Z,19.30
2017-10-20T09:47:23.546Z,20.80
2017-10-20T09:49:50.239Z,19.47
2017-10-20T09:52:16.950Z,20.83
2017-10-20T09:54:43.652Z,18.20
2017-10-20T09:57:10.368Z,20.03
2017-10-20T09:59:37.109Z,17.63
2017-10-20T10:02:03.865Z,19.90
2017-10-20T10:04:30.587Z,18.80
2017-10-20T10:06:57.282Z,17.43
2017-10-20T10:09:24.001Z,17.63
2017-10-20T10:11:50.707Z,18.50
2017-10-20T10:14:17.410Z,16.80
2017-10-20T10:16:44.158Z,17.23
2017-10-20T10:19:10.886Z,18.30
2017-10-20T10:21:37.740Z,19.20
2017-10-20T10:24:04.453Z,18.43
2017-10-20T10:26:31.147Z,19.70
2017-10-20T10:28:57.852Z,17.37
2017-10-20T10:31:24.576Z,18.73
2017-10-20T10:33:51.278Z,18.00
2017-10-20T10:36:17.978Z,17.53
2017-10-20T10:38:44.686Z,17.70
2017-10-20T10:41:11.382Z,17.20
2017-10-20T10:43:38.091Z,17.20
2017-10-20T10:46:04.811Z,18.90
2017-10-20T10:48:31.519Z,19.23
2017-10-20T10:50:58.219Z,17.67
2017-10-20T10:53:24.971Z,16.53
2017-10-20T10:55:51.666Z,17.33
2017-10-20T10:58:18.408Z,19.20
2017-10-20T11:00:45.173Z,17.97
2017-10-20T11:03:11.912Z,16.50
2017-10-20T11:05:44.369Z,17.00
2017-10-20T11:08:16.822Z,16.67
2017-10-20T11:10:49.336Z,16.57
2017-10-20T11:13:16.064Z,17.43
2017-10-20T11:15:42.819Z,18.97
2017-10-20T11:18:09.514Z,18.27
2017-10-20T11:20:36.251Z,19.13
2017-10-20T11:23:02.974Z,19.37
2017-10-20T11:25:29.712Z,16.13
2017-10-20T11:27:56.439Z,18.93
2017-10-20T11:30:23.220Z,18.53
2017-10-20T11:32:49.931Z,19.80
2017-10-20T11:35:16.679Z,18.73
2017-10-20T11:37:43.451Z,18.57
2017-10-20T11:40:10.180Z,18.53
2017-10-20T11:42:36.899Z,18.20
2017-10-20T11:45:03.661Z,18.43
2017-10-20T11:47:30.387Z,18.53
2017-10-20T11:49:57.990Z,18.03
2017-10-20T11:52:24.722Z,18.43
2017-10-20T11:54:51.438Z,19.57
2017-10-20T11:57:18.143Z,17.90
2017-10-20T11:59:44.910Z,18.10
2017-10-20T12:02:11.631Z,17.80
2017-10-20T12:04:38.351Z,17.40
2017-10-20T12:07:05.120Z,19.00
2017-10-20T12:09:31.836Z,17.40
2017-10-20T12:11:58.533Z,17.30
2017-10-20T12:14:25.300Z,18.50
2017-10-20T12:16:52.038Z,16.00
2017-10-20T12:19:18.754Z,14.67
2017-10-20T12:21:45.503Z,15.10
2017-10-20T12:24:12.200Z,15.10
2017-10-20T12:26:38.899Z,13.73
2017-10-20T12:29:05.664Z,15.80
2017-10-20T12:31:32.421Z,14.00
2017-10-20T12:33:59.160Z,14.93
2017-10-20T12:36:25.900Z,13.80
2017-10-20T12:38:52.708Z,12.83
2017-10-20T12:41:19.413Z,11.47
2017-10-20T12:43:46.155Z,11.33
2017-10-20T12:46:12.863Z,11.67
2017-10-20T12:48:39.576Z,13.17
2017-10-20T12:51:06.318Z,11.00
2017-10-20T12:53:33.034Z,11.57
2017-10-20T12:55:59.755Z,11.30
2017-10-20T12:58:26.508Z,11.57
2017-10-20T13:00:53.221Z,11.50
2017-10-20T13:03:20.133Z,11.53
2017-10-20T13:05:46.868Z,10.37
2017-10-20T13:08:13.598Z,12.37
2017-10-20T13:10:40.317Z,10.57
2017-10-20T13:13:07.087Z,9.70
2017-10-20T13:15:33.798Z,9.70
2017-10-20T13:18:00.554Z,10.73
2017-10-20T13:20:27.286Z,10.93
2017-10-20T13:22:53.980Z,10.60
2017-10-20T13:25:20.702Z,10.27
2017-10-20T13:27:47.434Z,10.30
2017-10-20T13:30:14.138Z,9.83
2017-10-20T13:32:40.835Z,10.40
2017-10-20T13:35:07.555Z,9.70
2017-10-20T13:37:34.263Z,9.87
2017-10-20T13:40:00.976Z,9.30
2017-10-20T13:42:27.769Z,11.17
2017-10-20T13:44:54.465Z,9.20
2017-10-20T13:47:21.178Z,9.50
2017-10-20T13:49:47.914Z,10.27
2017-10-20T13:52:14.613Z,9.07
2017-10-20T13:54:41.310Z,9.30
2017-10-20T13:57:08.196Z,10.87
2017-10-20T13:59:34.891Z,9.67
2017-10-20T14:02:01.601Z,9.53
2017-10-20T14:04:28.450Z,10.80
2017-10-20T14:06:55.148Z,10.27
2017-10-20T14:09:21.866Z,9.20
2017-10-20T14:11:48.609Z,10.27
2017-10-20T14:14:15.428Z,10.00
2017-10-20T14:16:42.138Z,10.07
2017-10-20T14:19:08.866Z,9.57
2017-10-20T14:21:35.571Z,9.27
2017-10-20T14:24:02.271Z,9.07
2017-10-20T14:26:29.086Z,8.73
2017-10-20T14:28:56.037Z,10.80
2017-10-20T14:31:22.776Z,11.60
2017-10-20T14:33:49.824Z,9.80
2017-10-20T14:36:16.546Z,8.70
2017-10-20T14:38:43.252Z,10.17
2017-10-20T14:41:09.995Z,9.50
2017-10-20T14:43:36.861Z,14.63
2017-10-20T14:46:03.824Z,8.67
2017-10-20T14:48:30.633Z,9.63
2017-10-20T14:50:57.344Z,9.40
2017-10-20T14:53:24.058Z,9.03
2017-10-20T14:55:50.876Z,8.70
2017-10-20T14:58:17.588Z,9.70
2017-10-20T15:00:44.305Z,10.30
2017-10-20T15:03:11.034Z,9.20
2017-10-20T15:05:37.749Z,8.80
2017-10-20T15:08:04.474Z,10.43
2017-10-20T15:10:31.250Z,9.23
2017-10-20T15:12:58.003Z,10.50
2017-10-20T15:15:24.713Z,10.70
2017-10-20T15:17:51.534Z,10.27
2017-10-20T15:20:18.272Z,10.73
2017-10-20T15:22:45.030Z,10.13
2017-10-20T15:25:11.775Z,10.40
2017-10-20T15:27:38.495Z,10.33
2017-10-20T15:30:05.193Z,10.03
2017-10-20T15:32:31.949Z,11.10
2017-10-20T15:34:58.677Z,10.00
2017-10-20T15:37:25.372Z,10.37
2017-10-20T15:39:52.116Z,10.37
2017-10-20T15:42:18.806Z,9.77
2017-10-20T15:44:45.501Z,9.53
2017-10-20T15:47:12.220Z,9.77
2017-10-20T15:49:38.916Z,9.90
2017-10-20T15:52:05.751Z,9.83
2017-10-20T15:54:32.466Z,10.30
2017-10-20T15:56:59.166Z,10.60
2017-10-20T15:59:25.885Z,9.53
2017-10-20T16:01:52.600Z,9.50
2017-10-20T16:04:19.300Z,10.13
2017-10-20T16:06:46.016Z,9.03
2017-10-20T16:09:12.781Z,10.90
2017-10-20T16:11:39.479Z,10.63
2017-10-20T16:14:06.176Z,9.60
2017-10-20T16:16:32.896Z,10.07
2017-10-20T16:18:59.588Z,9.90
2017-10-20T16:21:26.305Z,10.07
2017-10-20T16:23:53.027Z,8.97
2017-10-20T16:26:19.729Z,10.27
2017-10-20T16:28:46.427Z,10.70
2017-10-20T16:31:13.154Z,11.23
2017-10-20T16:33:39.872Z,9.47
2017-10-20T16:36:06.584Z,10.20
2017-10-20T16:38:33.342Z,9.50
2017-10-20T16:41:00.059Z,10.10
2017-10-20T16:43:26.759Z,10.30
2017-10-20T16:45:53.489Z,9.40
2017-10-20T16:48:20.188Z,10.93
2017-10-20T16:50:46.908Z,11.87
2017-10-20T16:53:13.722Z,10.30
2017-10-20T16:55:40.418Z,11.67
2017-10-20T16:58:07.131Z,12.23
2017-10-20T17:00:33.878Z,13.33
2017-10-20T17:03:00.575Z,13.60
2017-10-20T17:05:27.287Z,12.27
2017-10-20T17:07:54.014Z,10.57
2017-10-20T17:10:20.712Z,11.20
2017-10-20T17:12:47.418Z,11.20
2017-10-20T17:15:14.138Z,11.13
2017-10-20T17:17:40.851Z,11.17
2017-10-20T17:20:07.559Z,11.30
2017-10-20T17:22:34.306Z,11.33
2017-10-20T17:25:01.010Z,11.70
2017-10-20T17:27:27.718Z,12.53
2017-10-20T17:29:54.445Z,11.40
2017-10-20T17:32:21.150Z,11.10
2017-10-20T17:34:47.856Z,11.60
2017-10-20T17:37:14.594Z,11.10
2017-10-20T17:39:41.306Z,11.73
2017-10-20T17:42:08.003Z,13.03
2017-10-20T17:44:34.734Z,11.63
2017-10-20T17:47:01.441Z,11.60
2017-10-20T17:49:28.159Z,12.37
2017-10-20T17:51:54.879Z,14.60
2017-10-20T17:54:21.587Z,13.70
2017-10-20T17:56:48.290Z,17.10
2017-10-20T17:59:15.030Z,19.27
2017-10-20T18:01:41.729Z,25.40
2017-10-20T18:04:08.440Z,23.43
2017-10-20T18:06:35.172Z,22.87
2017-10-20T18:09:01.889Z,20.97
2017-10-20T18:11:28.598Z,15.83
2017-10-20T18:13:55.331Z,15.77
2017-10-20T18:16:22.051Z,16.60
2017-10-20T18:18:48.760Z,17.17
2017-10-20T18:21:15.493Z,17.30
2017-10-20T18:23:42.192Z,17.43
2017-10-20T18:26:08.931Z,16.20
2017-10-20T18:28:35.662Z,17.17
2017-10-20T18:31:02.374Z,19.33
2017-10-20T18:33:29.075Z,17.50
2017-10-20T18:35:55.808Z,18.33
2017-10-20T18:38:22.546Z,18.73
2017-10-20T18:40:49.256Z,19.40
2017-10-20T18:43:16.013Z,18.60
2017-10-20T18:45:42.755Z,19.53
2017-10-20T18:48:09.464Z,19.67
2017-10-20T18:50:36.204Z,18.03
2017-10-20T18:53:02.910Z,19.63
2017-10-20T18:55:29.612Z,19.67
2017-10-20T18:57:56.349Z,17.80
2017-10-20T19:00:23.071Z,17.40
2017-10-20T19:02:49.803Z,19.30
2017-10-20T19:05:16.579Z,18.63
2017-10-20T19:07:43.294Z,18.23
2017-10-20T19:10:10.016Z,18.87
2017-10-20T19:12:36.762Z,19.03
2017-10-20T19:15:03.505Z,18.07
2017-10-20T19:17:30.219Z,18.80
2017-10-20T19:19:56.947Z,18.70
2017-10-20T19:22:23.658Z,18.97
2017-10-20T19:24:50.379Z,18.60
2017-10-20T19:27:17.118Z,16.97
2017-10-20T19:29:43.813Z,16.73
2017-10-20T19:32:10.649Z,18.37
2017-10-20T19:34:37.390Z,19.00
2017-10-20T19:37:04.122Z,18.00
2017-10-20T19:39:30.864Z,17.53
2017-10-20T19:41:57.601Z,17.70
2017-10-20T19:44:24.309Z,18.97
2017-10-20T19:46:51.052Z,19.03
2017-10-20T19:49:17.787Z,19.20
2017-10-20T19:51:44.515Z,17.97
2017-10-20T19:54:11.247Z,19.20
2017-10-20T19:56:37.984Z,19.60
2017-10-20T19:59:04.826Z,17.63
2017-10-20T20:01:31.646Z,18.30
2017-10-20T20:03:58.399Z,19.50
2017-10-20T20:06:25.125Z,19.10
2017-10-20T20:08:51.844Z,18.97
2017-10-20T20:11:18.708Z,19.20
2017-10-20T20:13:45.451Z,17.63
2017-10-20T20:16:12.169Z,19.30
2017-10-20T20:18:39.028Z,20.33
2017-10-20T20:21:05.808Z,19.13
2017-10-20T20:23:32.643Z,20.80
2017-10-20T20:25:59.446Z,20.07
2017-10-20T20:28:26.219Z,19.67
2017-10-20T20:30:52.995Z,20.10
2017-10-20T20:33:25.499Z,19.40
2017-10-20T20:35:52.234Z,19.07
2017-10-20T20:38:18.989Z,19.50
2017-10-20T20:40:45.989Z,19.47
2017-10-20T20:43:12.738Z,19.40
2017-10-20T20:45:39.476Z,19.90
2017-10-20T20:50:56.496Z,18.37
2017-10-20T20:53:23.332Z,18.47
2017-10-20T20:55:50.241Z,18.93
2017-10-20T20:58:16.956Z,18.90
2017-10-20T21:00:43.944Z,18.77
2017-10-20T21:03:10.754Z,19.37
2017-10-20T21:05:37.488Z,19.83
2017-10-20T21:08:04.236Z,18.83
2017-10-20T21:10:30.962Z,17.30
2017-10-20T21:12:57.750Z,16.73
2017-10-20T21:15:24.678Z,17.60
2017-10-20T21:17:51.384Z,16.37
2017-10-20T21:20:18.563Z,16.80
2017-10-20T21:22:45.413Z,15.70
2017-10-20T21:25:12.145Z,15.43
2017-10-20T21:27:38.857Z,15.77
2017-10-20T21:30:05.614Z,16.17
2017-10-20T21:32:32.347Z,16.30
2017-10-20T21:34:59.142Z,16.87
2017-10-20T21:37:25.870Z,14.80
2017-10-20T21:39:52.575Z,15.37
2017-10-20T21:42:19.292Z,17.30
2017-10-20T21:44:46.067Z,16.13
2017-10-20T21:47:12.793Z,16.00
2017-10-20T21:49:39.526Z,17.73
2017-10-20T21:52:06.262Z,17.60
2017-10-20T21:54:33.020Z,16.47
2017-10-20T21:56:59.728Z,16.70
2017-10-20T21:59:26.472Z,15.07
2017-10-20T22:01:53.276Z,16.37
2017-10-20T22:04:20.008Z,15.10
2017-10-20T22:06:46.738Z,14.60
2017-10-20T22:09:13.459Z,15.03
2017-10-20T22:11:40.167Z,14.53
2017-10-20T22:14:06.890Z,15.53
2017-10-20T22:16:33.598Z,16.17
2017-10-20T22:19:00.315Z,14.27
2017-10-20T22:21:27.151Z,14.87
2017-10-20T22:23:53.941Z,16.23
2017-10-20T22:26:20.687Z,13.90
2017-10-20T22:28:47.410Z,13.47
2017-10-20T22:31:14.115Z,13.90
2017-10-20T22:33:40.829Z,16.20
2017-10-20T22:36:07.564Z,13.73
2017-10-20T22:38:34.293Z,15.77
2017-10-20T22:41:01.011Z,15.13
2017-10-20T22:43:27.852Z,15.50
2017-10-20T22:45:54.563Z,16.53
2017-10-20T22:48:21.270Z,17.40
2017-10-20T22:50:48.004Z,15.80
2017-10-20T22:53:14.780Z,16.60
2017-10-20T22:55:41.482Z,15.70
2017-10-20T22:58:08.347Z,16.43
2017-10-20T23:00:35.049Z,18.67
2017-10-20T23:03:01.763Z,16.43
2017-10-20T23:05:28.496Z,14.43
2017-10-20T23:07:55.204Z,16.30
2017-10-20T23:10:21.928Z,16.57
2017-10-20T23:12:48.652Z,15.80
2017-10-20T23:15:15.354Z,16.07
2017-10-20T23:17:42.062Z,15.00
2017-10-20T23:20:08.871Z,14.70
2017-10-20T23:22:35.573Z,15.30
2017-10-20T23:25:02.297Z,14.33
2017-10-20T23:27:29.119Z,15.13
2017-10-20T23:29:55.823Z,17.10
2017-10-20T23:32:22.527Z,16.60
2017-10-20T23:34:49.246Z,16.30
2017-10-20T23:37:15.946Z,14.40
2017-10-20T23:39:42.657Z,16.47
2017-10-20T23:42:09.416Z,15.47
2017-10-20T23:44:36.126Z,14.93
2017-10-20T23:47:02.837Z,14.87
2017-10-20T23:49:29.572Z,14.23
2017-10-20T23:51:56.279Z,15.17
2017-10-20T23:54:23.004Z,13.70
2017-10-20T23:56:49.799Z,13.13
2017-10-20T23:59:16.517Z,16.30
